sensor_id;sensor_type;location;lat;lon;timestamp;P1;durP1;ratioP1;P2;durP2;ratioP2
45041;SDS011;30779;52.096;4.410;2022-11-12T00:01:12;38.33;;;23.33;;
45041;SDS011;30779;52.096;4.410;2022-11-12T00:04:13;43.83;;;24.48;;
45041;SDS011;30779;52.096;4.410;2022-11-12T00:07:14;39.85;;;24.08;;
45041;SDS011;30779;52.096;4.410;2022-11-12T00:10:15;44.22;;;24.20;;
45041;SDS011;30779;52.096;4.410;2022-11-12T00:13:16;40.30;;;23.88;;
45041;SDS011;30779;52.096;4.410;2022-11-12T00:16:17;40.33;;;23.38;;
45041;SDS011;30779;52.096;4.410;2022-11-12T00:19:18;42.50;;;25.60;;
45041;SDS011;30779;52.096;4.410;2022-11-12T00:22:20;41.55;;;25.48;;
45041;SDS011;30779;52.096;4.410;2022-11-12T00:25:21;39.28;;;24.38;;
45041;SDS011;30779;52.096;4.410;2022-11-12T00:28:22;41.17;;;25.30;;
45041;SDS011;30779;52.096;4.410;2022-11-12T00:31:24;41.03;;;24.77;;
45041;SDS011;30779;52.096;4.410;2022-11-12T00:34:25;42.80;;;23.50;;
45041;SDS011;30779;52.096;4.410;2022-11-12T00:37:26;42.42;;;26.13;;
45041;SDS011;30779;52.096;4.410;2022-11-12T00:40:27;40.58;;;25.67;;
45041;SDS011;30779;52.096;4.410;2022-11-12T00:43:28;44.45;;;26.02;;
45041;SDS011;30779;52.096;4.410;2022-11-12T00:46:29;38.22;;;23.55;;
45041;SDS011;30779;52.096;4.410;2022-11-12T00:49:30;44.40;;;28.13;;
45041;SDS011;30779;52.096;4.410;2022-11-12T00:52:31;57.00;;;30.90;;
45041;SDS011;30779;52.096;4.410;2022-11-12T00:55:32;45.13;;;27.60;;
45041;SDS011;30779;52.096;4.410;2022-11-12T00:58:34;49.97;;;30.17;;
45041;SDS011;30779;52.096;4.410;2022-11-12T01:01:35;48.08;;;28.10;;
45041;SDS011;30779;52.096;4.410;2022-11-12T01:04:36;52.17;;;30.35;;
45041;SDS011;30779;52.096;4.410;2022-11-12T01:07:37;46.13;;;28.98;;
45041;SDS011;30779;52.096;4.410;2022-11-12T01:10:38;48.55;;;29.75;;
45041;SDS011;30779;52.096;4.410;2022-11-12T01:13:40;45.08;;;28.67;;
45041;SDS011;30779;52.096;4.410;2022-11-12T01:16:41;46.95;;;28.73;;
45041;SDS011;30779;52.096;4.410;2022-11-12T01:19:42;47.17;;;29.58;;
45041;SDS011;30779;52.096;4.410;2022-11-12T01:22:43;43.97;;;25.98;;
45041;SDS011;30779;52.096;4.410;2022-11-12T01:25:44;43.38;;;27.67;;
45041;SDS011;30779;52.096;4.410;2022-11-12T01:28:45;43.88;;;28.17;;
45041;SDS011;30779;52.096;4.410;2022-11-12T01:31:46;43.15;;;27.17;;
45041;SDS011;30779;52.096;4.410;2022-11-12T01:34:49;43.88;;;28.02;;
45041;SDS011;30779;52.096;4.410;2022-11-12T01:37:50;45.90;;;27.63;;
45041;SDS011;30779;52.096;4.410;2022-11-12T01:40:51;43.92;;;28.05;;
45041;SDS011;30779;52.096;4.410;2022-11-12T01:50:29;47.40;;;28.33;;
45041;SDS011;30779;52.096;4.410;2022-11-12T01:53:33;50.38;;;30.98;;
45041;SDS011;30779;52.096;4.410;2022-11-12T01:56:35;50.05;;;31.70;;
45041;SDS011;30779;52.096;4.410;2022-11-12T01:59:39;51.17;;;31.80;;
45041;SDS011;30779;52.096;4.410;2022-11-12T02:02:42;54.08;;;30.98;;
45041;SDS011;30779;52.096;4.410;2022-11-12T02:05:45;47.83;;;30.52;;
45041;SDS011;30779;52.096;4.410;2022-11-12T02:08:47;50.70;;;31.95;;
45041;SDS011;30779;52.096;4.410;2022-11-12T02:11:49;49.30;;;32.00;;
45041;SDS011;30779;52.096;4.410;2022-11-12T02:14:50;49.58;;;30.33;;
45041;SDS011;30779;52.096;4.410;2022-11-12T02:17:51;48.45;;;29.92;;
45041;SDS011;30779;52.096;4.410;2022-11-12T02:20:53;48.63;;;29.02;;
45041;SDS011;30779;52.096;4.410;2022-11-12T02:23:56;49.75;;;29.92;;
45041;SDS011;30779;52.096;4.410;2022-11-12T02:26:57;47.40;;;29.85;;
45041;SDS011;30779;52.096;4.410;2022-11-12T02:29:58;46.53;;;28.00;;
45041;SDS011;30779;52.096;4.410;2022-11-12T02:32:59;44.15;;;27.90;;
45041;SDS011;30779;52.096;4.410;2022-11-12T02:36:00;44.38;;;27.80;;
45041;SDS011;30779;52.096;4.410;2022-11-12T02:39:01;45.33;;;26.80;;
45041;SDS011;30779;52.096;4.410;2022-11-12T02:42:02;44.20;;;27.70;;
45041;SDS011;30779;52.096;4.410;2022-11-12T02:45:03;45.25;;;26.67;;
45041;SDS011;30779;52.096;4.410;2022-11-12T02:48:04;43.97;;;26.92;;
45041;SDS011;30779;52.096;4.410;2022-11-12T02:51:06;45.90;;;26.00;;
45041;SDS011;30779;52.096;4.410;2022-11-12T02:54:07;44.55;;;26.00;;
45041;SDS011;30779;52.096;4.410;2022-11-12T02:57:08;47.63;;;27.73;;
45041;SDS011;30779;52.096;4.410;2022-11-12T03:00:09;53.42;;;29.33;;
45041;SDS011;30779;52.096;4.410;2022-11-12T03:03:11;50.70;;;28.85;;
45041;SDS011;30779;52.096;4.410;2022-11-12T03:06:12;54.13;;;30.45;;
45041;SDS011;30779;52.096;4.410;2022-11-12T03:09:13;52.33;;;28.38;;
45041;SDS011;30779;52.096;4.410;2022-11-12T03:12:14;55.13;;;31.25;;
45041;SDS011;30779;52.096;4.410;2022-11-12T03:15:15;59.55;;;32.33;;
45041;SDS011;30779;52.096;4.410;2022-11-12T03:18:16;57.25;;;30.70;;
45041;SDS011;30779;52.096;4.410;2022-11-12T03:21:17;55.13;;;31.92;;
45041;SDS011;30779;52.096;4.410;2022-11-12T03:24:18;51.78;;;29.15;;
45041;SDS011;30779;52.096;4.410;2022-11-12T03:27:19;53.42;;;29.83;;
45041;SDS011;30779;52.096;4.410;2022-11-12T03:30:20;55.72;;;30.33;;
45041;SDS011;30779;52.096;4.410;2022-11-12T03:33:21;55.75;;;30.17;;
45041;SDS011;30779;52.096;4.410;2022-11-12T03:36:22;55.60;;;29.67;;
45041;SDS011;30779;52.096;4.410;2022-11-12T03:39:23;58.28;;;31.67;;
45041;SDS011;30779;52.096;4.410;2022-11-12T03:42:24;64.28;;;32.42;;
45041;SDS011;30779;52.096;4.410;2022-11-12T03:45:26;59.58;;;31.40;;
45041;SDS011;30779;52.096;4.410;2022-11-12T03:48:27;62.22;;;32.63;;
45041;SDS011;30779;52.096;4.410;2022-11-12T03:51:28;62.92;;;31.25;;
45041;SDS011;30779;52.096;4.410;2022-11-12T03:54:29;57.38;;;29.95;;
45041;SDS011;30779;52.096;4.410;2022-11-12T03:57:30;61.15;;;32.50;;
45041;SDS011;30779;52.096;4.410;2022-11-12T04:00:31;63.50;;;31.30;;
45041;SDS011;30779;52.096;4.410;2022-11-12T04:03:32;65.75;;;32.60;;
45041;SDS011;30779;52.096;4.410;2022-11-12T04:06:33;61.03;;;32.20;;
45041;SDS011;30779;52.096;4.410;2022-11-12T04:09:52;64.70;;;32.22;;
45041;SDS011;30779;52.096;4.410;2022-11-12T04:12:54;67.05;;;34.40;;
45041;SDS011;30779;52.096;4.410;2022-11-12T04:16:15;63.92;;;32.03;;
45041;SDS011;30779;52.096;4.410;2022-11-12T04:19:35;61.03;;;30.85;;
45041;SDS011;30779;52.096;4.410;2022-11-12T04:22:54;63.33;;;31.30;;
45041;SDS011;30779;52.096;4.410;2022-11-12T04:25:55;65.75;;;31.80;;
45041;SDS011;30779;52.096;4.410;2022-11-12T04:29:15;66.78;;;34.08;;
45041;SDS011;30779;52.096;4.410;2022-11-12T04:32:36;62.65;;;31.60;;
45041;SDS011;30779;52.096;4.410;2022-11-12T04:35:37;66.90;;;31.73;;
45041;SDS011;30779;52.096;4.410;2022-11-12T04:38:38;67.28;;;32.17;;
45041;SDS011;30779;52.096;4.410;2022-11-12T04:41:39;61.97;;;30.40;;
45041;SDS011;30779;52.096;4.410;2022-11-12T04:45:00;59.92;;;28.20;;
45041;SDS011;30779;52.096;4.410;2022-11-12T04:48:03;59.78;;;29.65;;
45041;SDS011;30779;52.096;4.410;2022-11-12T04:51:04;55.63;;;26.52;;
45041;SDS011;30779;52.096;4.410;2022-11-12T04:54:24;56.92;;;27.52;;
45041;SDS011;30779;52.096;4.410;2022-11-12T04:57:25;52.78;;;28.05;;
45041;SDS011;30779;52.096;4.410;2022-11-12T05:00:26;62.45;;;29.52;;
45041;SDS011;30779;52.096;4.410;2022-11-12T05:03:27;52.20;;;28.45;;
45041;SDS011;30779;52.096;4.410;2022-11-12T05:06:28;55.55;;;28.67;;
45041;SDS011;30779;52.096;4.410;2022-11-12T05:09:48;66.57;;;29.17;;
45041;SDS011;30779;52.096;4.410;2022-11-12T05:12:49;75.35;;;30.35;;
45041;SDS011;30779;52.096;4.410;2022-11-12T05:15:50;59.75;;;29.65;;
45041;SDS011;30779;52.096;4.410;2022-11-12T05:18:51;72.63;;;30.02;;
45041;SDS011;30779;52.096;4.410;2022-11-12T05:21:52;95.93;;;32.53;;
45041;SDS011;30779;52.096;4.410;2022-11-12T05:25:05;106.43;;;31.63;;
45041;SDS011;30779;52.096;4.410;2022-11-12T05:28:07;102.47;;;32.45;;
45041;SDS011;30779;52.096;4.410;2022-11-12T05:31:08;92.88;;;31.20;;
45041;SDS011;30779;52.096;4.410;2022-11-12T05:34:09;98.20;;;32.67;;
45041;SDS011;30779;52.096;4.410;2022-11-12T05:37:10;103.35;;;32.50;;
45041;SDS011;30779;52.096;4.410;2022-11-12T05:40:11;86.47;;;31.17;;
45041;SDS011;30779;52.096;4.410;2022-11-12T05:43:13;98.93;;;31.98;;
45041;SDS011;30779;52.096;4.410;2022-11-12T05:46:14;140.57;;;34.10;;
45041;SDS011;30779;52.096;4.410;2022-11-12T05:49:15;114.68;;;33.53;;
45041;SDS011;30779;52.096;4.410;2022-11-12T05:52:16;99.57;;;30.35;;
45041;SDS011;30779;52.096;4.410;2022-11-12T05:55:17;119.18;;;33.03;;
45041;SDS011;30779;52.096;4.410;2022-11-12T05:58:18;130.52;;;32.30;;
45041;SDS011;30779;52.096;4.410;2022-11-12T06:01:19;107.38;;;29.98;;
45041;SDS011;30779;52.096;4.410;2022-11-12T06:04:20;100.43;;;29.10;;
45041;SDS011;30779;52.096;4.410;2022-11-12T06:07:22;88.10;;;30.20;;
45041;SDS011;30779;52.096;4.410;2022-11-12T06:10:23;105.18;;;28.27;;
45041;SDS011;30779;52.096;4.410;2022-11-12T06:13:24;102.90;;;29.30;;
45041;SDS011;30779;52.096;4.410;2022-11-12T06:16:25;111.80;;;29.45;;
45041;SDS011;30779;52.096;4.410;2022-11-12T06:19:26;73.95;;;26.02;;
45041;SDS011;30779;52.096;4.410;2022-11-12T06:22:27;92.00;;;27.05;;
45041;SDS011;30779;52.096;4.410;2022-11-12T06:25:28;90.80;;;27.50;;
45041;SDS011;30779;52.096;4.410;2022-11-12T06:28:29;76.18;;;27.77;;
45041;SDS011;30779;52.096;4.410;2022-11-12T06:31:30;81.10;;;28.25;;
45041;SDS011;30779;52.096;4.410;2022-11-12T06:34:31;59.17;;;25.83;;
45041;SDS011;30779;52.096;4.410;2022-11-12T06:37:32;58.80;;;25.20;;
45041;SDS011;30779;52.096;4.410;2022-11-12T06:40:33;52.47;;;24.13;;
45041;SDS011;30779;52.096;4.410;2022-11-12T06:43:34;51.38;;;23.15;;
45041;SDS011;30779;52.096;4.410;2022-11-12T06:46:35;72.75;;;25.90;;
45041;SDS011;30779;52.096;4.410;2022-11-12T06:49:36;82.30;;;27.70;;
45041;SDS011;30779;52.096;4.410;2022-11-12T06:52:37;68.97;;;24.55;;
45041;SDS011;30779;52.096;4.410;2022-11-12T06:55:38;85.80;;;27.08;;
45041;SDS011;30779;52.096;4.410;2022-11-12T06:58:39;78.95;;;27.70;;
45041;SDS011;30779;52.096;4.410;2022-11-12T07:01:40;70.38;;;27.10;;
45041;SDS011;30779;52.096;4.410;2022-11-12T07:04:41;71.43;;;26.40;;
45041;SDS011;30779;52.096;4.410;2022-11-12T07:07:42;65.55;;;26.80;;
45041;SDS011;30779;52.096;4.410;2022-11-12T07:10:43;74.55;;;28.95;;
45041;SDS011;30779;52.096;4.410;2022-11-12T07:13:44;64.07;;;25.35;;
45041;SDS011;30779;52.096;4.410;2022-11-12T07:16:46;43.40;;;23.00;;
45041;SDS011;30779;52.096;4.410;2022-11-12T07:19:47;48.42;;;23.42;;
45041;SDS011;30779;52.096;4.410;2022-11-12T07:22:47;45.70;;;23.75;;
45041;SDS011;30779;52.096;4.410;2022-11-12T07:25:58;54.28;;;24.35;;
45041;SDS011;30779;52.096;4.410;2022-11-12T07:29:00;58.28;;;23.50;;
45041;SDS011;30779;52.096;4.410;2022-11-12T07:32:01;58.35;;;22.83;;
45041;SDS011;30779;52.096;4.410;2022-11-12T07:35:02;67.70;;;25.35;;
45041;SDS011;30779;52.096;4.410;2022-11-12T07:38:03;56.60;;;24.70;;
45041;SDS011;30779;52.096;4.410;2022-11-12T07:41:26;42.17;;;22.10;;
45041;SDS011;30779;52.096;4.410;2022-11-12T07:44:26;69.57;;;24.58;;
45041;SDS011;30779;52.096;4.410;2022-11-12T07:47:27;91.57;;;25.67;;
45041;SDS011;30779;52.096;4.410;2022-11-12T07:50:28;62.78;;;23.98;;
45041;SDS011;30779;52.096;4.410;2022-11-12T07:53:29;86.20;;;27.50;;
45041;SDS011;30779;52.096;4.410;2022-11-12T07:56:30;75.43;;;24.20;;
45041;SDS011;30779;52.096;4.410;2022-11-12T07:59:31;65.45;;;22.83;;
45041;SDS011;30779;52.096;4.410;2022-11-12T08:02:32;68.70;;;22.25;;
45041;SDS011;30779;52.096;4.410;2022-11-12T08:05:33;51.55;;;21.65;;
45041;SDS011;30779;52.096;4.410;2022-11-12T08:08:34;62.92;;;24.42;;
45041;SDS011;30779;52.096;4.410;2022-11-12T08:11:35;33.95;;;20.50;;
45041;SDS011;30779;52.096;4.410;2022-11-12T08:14:36;38.33;;;22.58;;
45041;SDS011;30779;52.096;4.410;2022-11-12T08:17:37;30.60;;;19.75;;
45041;SDS011;30779;52.096;4.410;2022-11-12T08:20:39;30.05;;;19.40;;
45041;SDS011;30779;52.096;4.410;2022-11-12T08:23:40;31.45;;;20.27;;
45041;SDS011;30779;52.096;4.410;2022-11-12T08:26:41;22.20;;;17.42;;
45041;SDS011;30779;52.096;4.410;2022-11-12T08:29:42;23.85;;;17.60;;
45041;SDS011;30779;52.096;4.410;2022-11-12T08:32:43;24.10;;;16.38;;
45041;SDS011;30779;52.096;4.410;2022-11-12T08:35:44;22.02;;;16.92;;
45041;SDS011;30779;52.096;4.410;2022-11-12T08:38:45;26.67;;;17.23;;
45041;SDS011;30779;52.096;4.410;2022-11-12T08:41:46;18.38;;;14.52;;
45041;SDS011;30779;52.096;4.410;2022-11-12T08:44:47;19.98;;;14.77;;
45041;SDS011;30779;52.096;4.410;2022-11-12T08:47:48;19.02;;;14.65;;
45041;SDS011;30779;52.096;4.410;2022-11-12T08:50:49;17.65;;;13.98;;
45041;SDS011;30779;52.096;4.410;2022-11-12T08:53:50;18.55;;;15.32;;
45041;SDS011;30779;52.096;4.410;2022-11-12T08:56:51;16.42;;;13.48;;
45041;SDS011;30779;52.096;4.410;2022-11-12T08:59:52;18.90;;;14.27;;
45041;SDS011;30779;52.096;4.410;2022-11-12T09:02:53;17.02;;;14.27;;
45041;SDS011;30779;52.096;4.410;2022-11-12T09:05:54;13.93;;;12.48;;
45041;SDS011;30779;52.096;4.410;2022-11-12T09:08:55;16.42;;;13.48;;
45041;SDS011;30779;52.096;4.410;2022-11-12T09:11:56;15.15;;;13.25;;
45041;SDS011;30779;52.096;4.410;2022-11-12T09:14:57;13.52;;;12.02;;
45041;SDS011;30779;52.096;4.410;2022-11-12T09:17:59;14.52;;;12.25;;
45041;SDS011;30779;52.096;4.410;2022-11-12T09:21:01;14.20;;;12.35;;
45041;SDS011;30779;52.096;4.410;2022-11-12T09:24:03;12.95;;;11.35;;
45041;SDS011;30779;52.096;4.410;2022-11-12T09:27:04;11.80;;;10.18;;
45041;SDS011;30779;52.096;4.410;2022-11-12T09:30:05;14.77;;;11.32;;
45041;SDS011;30779;52.096;4.410;2022-11-12T09:33:06;13.15;;;11.43;;
45041;SDS011;30779;52.096;4.410;2022-11-12T09:36:07;12.88;;;11.18;;
45041;SDS011;30779;52.096;4.410;2022-11-12T09:39:08;13.30;;;10.95;;
45041;SDS011;30779;52.096;4.410;2022-11-12T09:42:12;11.90;;;10.25;;
45041;SDS011;30779;52.096;4.410;2022-11-12T09:45:19;14.15;;;10.90;;
45041;SDS011;30779;52.096;4.410;2022-11-12T09:48:24;13.13;;;10.45;;
45041;SDS011;30779;52.096;4.410;2022-11-12T09:51:31;12.32;;;9.55;;
45041;SDS011;30779;52.096;4.410;2022-11-12T09:54:34;12.35;;;11.00;;
45041;SDS011;30779;52.096;4.410;2022-11-12T09:57:35;13.37;;;9.93;;
45041;SDS011;30779;52.096;4.410;2022-11-12T10:00:36;14.85;;;9.68;;
45041;SDS011;30779;52.096;4.410;2022-11-12T10:06:48;11.52;;;9.90;;
45041;SDS011;30779;52.096;4.410;2022-11-12T10:13:19;12.93;;;10.57;;
45041;SDS011;30779;52.096;4.410;2022-11-12T10:26:12;13.75;;;10.32;;
45041;SDS011;30779;52.096;4.410;2022-11-12T10:29:17;13.15;;;10.05;;
45041;SDS011;30779;52.096;4.410;2022-11-12T10:32:21;11.93;;;10.43;;
45041;SDS011;30779;52.096;4.410;2022-11-12T10:35:22;13.45;;;10.18;;
45041;SDS011;30779;52.096;4.410;2022-11-12T10:38:24;13.35;;;10.75;;
45041;SDS011;30779;52.096;4.410;2022-11-12T10:44:27;11.77;;;10.40;;
45041;SDS011;30779;52.096;4.410;2022-11-12T10:47:36;12.77;;;8.98;;
45041;SDS011;30779;52.096;4.410;2022-11-12T10:50:41;12.88;;;9.02;;
45041;SDS011;30779;52.096;4.410;2022-11-12T10:53:42;11.13;;;9.57;;
45041;SDS011;30779;52.096;4.410;2022-11-12T10:56:43;10.40;;;8.57;;
45041;SDS011;30779;52.096;4.410;2022-11-12T10:59:44;11.20;;;8.70;;
45041;SDS011;30779;52.096;4.410;2022-11-12T11:02:54;10.05;;;9.05;;
45041;SDS011;30779;52.096;4.410;2022-11-12T11:06:00;9.85;;;8.30;;
45041;SDS011;30779;52.096;4.410;2022-11-12T11:12:20;13.05;;;8.68;;
45041;SDS011;30779;52.096;4.410;2022-11-12T11:18:23;9.30;;;7.63;;
45041;SDS011;30779;52.096;4.410;2022-11-12T11:33:56;7.63;;;5.65;;
45041;SDS011;30779;52.096;4.410;2022-11-12T11:43:29;6.82;;;5.95;;
45041;SDS011;30779;52.096;4.410;2022-11-12T11:55:55;5.68;;;4.35;;
45041;SDS011;30779;52.096;4.410;2022-11-12T11:59:03;4.88;;;4.07;;
45041;SDS011;30779;52.096;4.410;2022-11-12T12:02:19;5.28;;;3.47;;
45041;SDS011;30779;52.096;4.410;2022-11-12T12:14:58;4.22;;;3.30;;
45041;SDS011;30779;52.096;4.410;2022-11-12T12:18:47;4.03;;;2.95;;
45041;SDS011;30779;52.096;4.410;2022-11-12T12:21:28;3.85;;;2.70;;
45041;SDS011;30779;52.096;4.410;2022-11-12T12:27:33;5.85;;;3.67;;
45041;SDS011;30779;52.096;4.410;2022-11-12T12:30:36;4.35;;;3.58;;
45041;SDS011;30779;52.096;4.410;2022-11-12T12:36:46;5.35;;;3.83;;
45041;SDS011;30779;52.096;4.410;2022-11-12T12:39:56;6.55;;;5.05;;
45041;SDS011;30779;52.096;4.410;2022-11-12T12:43:16;5.20;;;3.88;;
45041;SDS011;30779;52.096;4.410;2022-11-12T12:46:21;5.25;;;3.67;;
45041;SDS011;30779;52.096;4.410;2022-11-12T12:49:31;4.45;;;3.78;;
45041;SDS011;30779;52.096;4.410;2022-11-12T12:55:57;4.43;;;3.60;;
45041;SDS011;30779;52.096;4.410;2022-11-12T12:58:59;5.38;;;3.58;;
45041;SDS011;30779;52.096;4.410;2022-11-12T13:02:40;6.72;;;4.45;;
45041;SDS011;30779;52.096;4.410;2022-11-12T13:05:35;5.88;;;4.75;;
45041;SDS011;30779;52.096;4.410;2022-11-12T13:08:36;5.35;;;4.85;;
45041;SDS011;30779;52.096;4.410;2022-11-12T13:15:13;6.27;;;4.60;;
45041;SDS011;30779;52.096;4.410;2022-11-12T13:21:34;8.57;;;6.32;;
45041;SDS011;30779;52.096;4.410;2022-11-12T13:31:02;7.05;;;5.43;;
45041;SDS011;30779;52.096;4.410;2022-11-12T13:34:17;6.20;;;5.57;;
45041;SDS011;30779;52.096;4.410;2022-11-12T13:37:19;5.82;;;5.13;;
45041;SDS011;30779;52.096;4.410;2022-11-12T13:43:41;6.78;;;4.70;;
45041;SDS011;30779;52.096;4.410;2022-11-12T13:46:42;5.35;;;4.38;;
45041;SDS011;30779;52.096;4.410;2022-11-12T13:49:44;6.20;;;4.95;;
45041;SDS011;30779;52.096;4.410;2022-11-12T13:52:46;7.65;;;5.70;;
45041;SDS011;30779;52.096;4.410;2022-11-12T13:55:50;5.90;;;5.30;;
45041;SDS011;30779;52.096;4.410;2022-11-12T13:58:51;6.05;;;5.43;;
45041;SDS011;30779;52.096;4.410;2022-11-12T14:01:52;8.02;;;5.60;;
45041;SDS011;30779;52.096;4.410;2022-11-12T14:04:55;6.60;;;5.68;;
45041;SDS011;30779;52.096;4.410;2022-11-12T14:08:04;6.60;;;5.45;;
45041;SDS011;30779;52.096;4.410;2022-11-12T14:23:27;5.72;;;4.40;;
45041;SDS011;30779;52.096;4.410;2022-11-12T14:26:34;4.90;;;3.65;;
45041;SDS011;30779;52.096;4.410;2022-11-12T14:29:36;4.82;;;4.00;;
45041;SDS011;30779;52.096;4.410;2022-11-12T14:32:37;5.25;;;3.47;;
45041;SDS011;30779;52.096;4.410;2022-11-12T14:35:38;4.15;;;3.75;;
45041;SDS011;30779;52.096;4.410;2022-11-12T14:38:55;5.95;;;4.30;;
45041;SDS011;30779;52.096;4.410;2022-11-12T14:41:57;5.85;;;4.22;;
45041;SDS011;30779;52.096;4.410;2022-11-12T14:44:59;5.68;;;4.40;;
45041;SDS011;30779;52.096;4.410;2022-11-12T14:48:00;6.82;;;4.45;;
45041;SDS011;30779;52.096;4.410;2022-11-12T14:51:02;5.40;;;4.28;;
45041;SDS011;30779;52.096;4.410;2022-11-12T14:54:05;7.32;;;4.30;;
45041;SDS011;30779;52.096;4.410;2022-11-12T14:57:08;5.65;;;4.20;;
45041;SDS011;30779;52.096;4.410;2022-11-12T15:00:15;6.80;;;5.70;;
45041;SDS011;30779;52.096;4.410;2022-11-12T15:03:22;7.43;;;4.88;;
45041;SDS011;30779;52.096;4.410;2022-11-12T15:06:27;7.70;;;5.45;;
45041;SDS011;30779;52.096;4.410;2022-11-12T15:09:36;5.60;;;4.78;;
45041;SDS011;30779;52.096;4.410;2022-11-12T15:12:37;7.07;;;5.70;;
45041;SDS011;30779;52.096;4.410;2022-11-12T15:15:39;7.45;;;6.72;;
45041;SDS011;30779;52.096;4.410;2022-11-12T15:19:03;6.80;;;6.00;;
45041;SDS011;30779;52.096;4.410;2022-11-12T15:22:05;7.88;;;5.80;;
45041;SDS011;30779;52.096;4.410;2022-11-12T15:25:10;8.27;;;6.45;;
45041;SDS011;30779;52.096;4.410;2022-11-12T15:28:12;7.35;;;6.25;;
45041;SDS011;30779;52.096;4.410;2022-11-12T15:31:18;8.07;;;7.07;;
45041;SDS011;30779;52.096;4.410;2022-11-12T15:37:24;8.82;;;6.70;;
45041;SDS011;30779;52.096;4.410;2022-11-12T15:40:26;8.52;;;7.45;;
45041;SDS011;30779;52.096;4.410;2022-11-12T15:43:28;10.88;;;7.93;;
45041;SDS011;30779;52.096;4.410;2022-11-12T15:46:30;8.63;;;7.13;;
45041;SDS011;30779;52.096;4.410;2022-11-12T15:49:31;9.40;;;7.45;;
45041;SDS011;30779;52.096;4.410;2022-11-12T15:52:32;8.52;;;7.05;;
45041;SDS011;30779;52.096;4.410;2022-11-12T15:55:33;9.85;;;7.53;;
45041;SDS011;30779;52.096;4.410;2022-11-12T15:58:34;9.73;;;7.32;;
45041;SDS011;30779;52.096;4.410;2022-11-12T16:01:38;10.23;;;7.90;;
45041;SDS011;30779;52.096;4.410;2022-11-12T16:04:39;10.25;;;8.73;;
45041;SDS011;30779;52.096;4.410;2022-11-12T16:07:40;10.10;;;7.72;;
45041;SDS011;30779;52.096;4.410;2022-11-12T16:10:42;12.63;;;9.48;;
45041;SDS011;30779;52.096;4.410;2022-11-12T16:13:44;10.63;;;8.40;;
45041;SDS011;30779;52.096;4.410;2022-11-12T16:16:45;10.48;;;8.00;;
45041;SDS011;30779;52.096;4.410;2022-11-12T16:19:46;10.88;;;8.30;;
45041;SDS011;30779;52.096;4.410;2022-11-12T16:22:47;12.25;;;7.78;;
45041;SDS011;30779;52.096;4.410;2022-11-12T16:25:48;13.52;;;9.52;;
45041;SDS011;30779;52.096;4.410;2022-11-12T16:28:49;11.15;;;8.43;;
45041;SDS011;30779;52.096;4.410;2022-11-12T16:31:50;9.65;;;7.32;;
45041;SDS011;30779;52.096;4.410;2022-11-12T16:34:51;10.20;;;8.50;;
45041;SDS011;30779;52.096;4.410;2022-11-12T16:37:52;9.60;;;7.57;;
45041;SDS011;30779;52.096;4.410;2022-11-12T16:40:54;10.32;;;7.95;;
45041;SDS011;30779;52.096;4.410;2022-11-12T16:43:55;12.68;;;8.55;;
45041;SDS011;30779;52.096;4.410;2022-11-12T16:46:56;10.10;;;8.43;;
45041;SDS011;30779;52.096;4.410;2022-11-12T16:49:57;11.65;;;9.23;;
45041;SDS011;30779;52.096;4.410;2022-11-12T16:52:58;9.77;;;8.52;;
45041;SDS011;30779;52.096;4.410;2022-11-12T16:55:59;12.48;;;8.85;;
45041;SDS011;30779;52.096;4.410;2022-11-12T16:59:00;11.77;;;8.93;;
45041;SDS011;30779;52.096;4.410;2022-11-12T17:02:01;12.77;;;9.98;;
45041;SDS011;30779;52.096;4.410;2022-11-12T17:05:03;16.85;;;11.07;;
45041;SDS011;30779;52.096;4.410;2022-11-12T17:08:04;14.50;;;10.45;;
45041;SDS011;30779;52.096;4.410;2022-11-12T17:11:06;13.65;;;9.98;;
45041;SDS011;30779;52.096;4.410;2022-11-12T17:14:08;13.95;;;10.40;;
45041;SDS011;30779;52.096;4.410;2022-11-12T17:17:10;14.75;;;11.32;;
45041;SDS011;30779;52.096;4.410;2022-11-12T17:20:11;14.90;;;10.50;;
45041;SDS011;30779;52.096;4.410;2022-11-12T17:23:12;17.15;;;11.20;;
45041;SDS011;30779;52.096;4.410;2022-11-12T17:26:14;16.67;;;12.25;;
45041;SDS011;30779;52.096;4.410;2022-11-12T17:29:15;14.57;;;11.43;;
45041;SDS011;30779;52.096;4.410;2022-11-12T17:32:16;14.95;;;11.20;;
45041;SDS011;30779;52.096;4.410;2022-11-12T17:35:17;15.82;;;11.90;;
45041;SDS011;30779;52.096;4.410;2022-11-12T17:38:18;16.23;;;11.48;;
45041;SDS011;30779;52.096;4.410;2022-11-12T17:41:19;15.80;;;10.50;;
45041;SDS011;30779;52.096;4.410;2022-11-12T17:44:20;16.88;;;11.02;;
45041;SDS011;30779;52.096;4.410;2022-11-12T17:47:21;17.23;;;11.35;;
45041;SDS011;30779;52.096;4.410;2022-11-12T17:50:22;16.67;;;11.10;;
45041;SDS011;30779;52.096;4.410;2022-11-12T17:53:23;15.13;;;10.73;;
45041;SDS011;30779;52.096;4.410;2022-11-12T17:56:24;17.67;;;11.88;;
45041;SDS011;30779;52.096;4.410;2022-11-12T17:59:26;16.55;;;12.40;;
45041;SDS011;30779;52.096;4.410;2022-11-12T18:02:27;17.50;;;12.43;;
45041;SDS011;30779;52.096;4.410;2022-11-12T18:05:28;17.75;;;12.88;;
45041;SDS011;30779;52.096;4.410;2022-11-12T18:08:29;21.85;;;14.80;;
45041;SDS011;30779;52.096;4.410;2022-11-12T18:11:31;22.70;;;16.35;;
45041;SDS011;30779;52.096;4.410;2022-11-12T18:14:37;19.85;;;14.43;;
45041;SDS011;30779;52.096;4.410;2022-11-12T18:17:38;18.48;;;14.82;;
45041;SDS011;30779;52.096;4.410;2022-11-12T18:20:39;18.90;;;13.52;;
45041;SDS011;30779;52.096;4.410;2022-11-12T18:23:42;21.85;;;14.25;;
45041;SDS011;30779;52.096;4.410;2022-11-12T18:26:43;18.85;;;15.00;;
45041;SDS011;30779;52.096;4.410;2022-11-12T18:29:44;27.35;;;15.50;;
45041;SDS011;30779;52.096;4.410;2022-11-12T18:32:45;18.60;;;14.20;;
45041;SDS011;30779;52.096;4.410;2022-11-12T18:35:46;19.13;;;14.45;;
45041;SDS011;30779;52.096;4.410;2022-11-12T18:38:47;20.05;;;14.57;;
45041;SDS011;30779;52.096;4.410;2022-11-12T18:41:51;20.92;;;14.25;;
45041;SDS011;30779;52.096;4.410;2022-11-12T18:44:53;22.58;;;15.20;;
45041;SDS011;30779;52.096;4.410;2022-11-12T18:47:54;21.48;;;15.05;;
45041;SDS011;30779;52.096;4.410;2022-11-12T18:53:59;21.88;;;15.77;;
45041;SDS011;30779;52.096;4.410;2022-11-12T18:57:00;20.48;;;13.40;;
45041;SDS011;30779;52.096;4.410;2022-11-12T19:00:02;21.27;;;15.60;;
45041;SDS011;30779;52.096;4.410;2022-11-12T19:03:03;22.58;;;15.98;;
45041;SDS011;30779;52.096;4.410;2022-11-12T19:06:04;20.20;;;14.48;;
45041;SDS011;30779;52.096;4.410;2022-11-12T19:09:06;21.35;;;15.32;;
45041;SDS011;30779;52.096;4.410;2022-11-12T19:12:10;24.58;;;17.15;;
45041;SDS011;30779;52.096;4.410;2022-11-12T19:15:11;22.58;;;16.63;;
45041;SDS011;30779;52.096;4.410;2022-11-12T19:18:12;25.38;;;18.15;;
45041;SDS011;30779;52.096;4.410;2022-11-12T19:21:14;26.88;;;17.48;;
45041;SDS011;30779;52.096;4.410;2022-11-12T19:24:15;21.15;;;16.23;;
45041;SDS011;30779;52.096;4.410;2022-11-12T19:27:16;25.75;;;17.70;;
45041;SDS011;30779;52.096;4.410;2022-11-12T19:30:18;25.52;;;17.98;;
45041;SDS011;30779;52.096;4.410;2022-11-12T19:33:19;21.60;;;15.85;;
45041;SDS011;30779;52.096;4.410;2022-11-12T19:36:22;23.67;;;16.50;;
45041;SDS011;30779;52.096;4.410;2022-11-12T19:39:23;20.73;;;16.93;;
45041;SDS011;30779;52.096;4.410;2022-11-12T19:42:24;26.38;;;19.42;;
45041;SDS011;30779;52.096;4.410;2022-11-12T19:45:25;57.38;;;30.13;;
45041;SDS011;30779;52.096;4.410;2022-11-12T19:48:26;76.20;;;36.38;;
45041;SDS011;30779;52.096;4.410;2022-11-12T19:51:27;54.10;;;30.20;;